Time;durP1;ratioP1;P1;durP2;ratioP2;P2;SDS_P1;SDS_P2;PMS_P1;PMS_P2;Temp;Humidity;BMP_temperature;BMP_pressure;BME280_temperature;BME280_humidity;BME280_pressure;Samples;Min_cycle;Max_cycle;Signal;HPM_P1;HPM_P2
2022/10/15 00:02:10;;;;;;;42.17;20.02;;;;;;;17.49;78.29;100859.78;5122342;27;20213;-74
2022/10/15 00:04:47;;;;;;;45.35;21.15;;;;;;;17.45;77.93;100857.66;5102132;27;20176;-74
2022/10/15 00:07:24;;;;;;;41.08;19.05;;;;;;;17.34;78.07;100859.06;5122304;27;20267;-74
2022/10/15 00:10:03;;;;;;;38.63;18.45;;;;;;;17.23;79.51;100858.53;5122406;27;20222;-74
2022/10/15 00:12:31;;;;;;;39.55;19.85;;;;;;;17.17;80.24;100860.63;5089322;28;20528;-74
2022/10/15 00:14:59;;;;;;;41.38;20.38;;;;;;;17.09;80.50;100863.34;5089120;28;20040;-74
2022/10/15 00:17:27;;;;;;;41.35;21.30;;;;;;;16.88;82.29;100858.34;5090167;28;20368;-74
2022/10/15 00:19:55;;;;;;;47.90;20.08;;;;;;;16.93;81.92;100864.53;5089146;28;20055;-74
2022/10/15 00:22:23;;;;;;;45.17;20.77;;;;;;;16.90;82.22;100870.72;5089535;28;20063;-74
2022/10/15 00:24:51;;;;;;;44.92;20.60;;;;;;;16.91;82.00;100869.56;5088754;28;20048;-74
2022/10/15 00:27:19;;;;;;;40.17;19.33;;;;;;;16.88;82.31;100864.69;5089069;28;20049;-74
2022/10/15 00:29:46;;;;;;;43.42;19.30;;;;;;;16.82;83.17;100865.94;5089416;28;20063;-74
2022/10/15 00:32:17;;;;;;;47.08;20.83;;;;;;;16.77;83.58;100869.66;5089322;28;20064;-74
2022/10/15 00:34:46;;;;;;;51.35;20.70;;;;;;;16.85;82.83;100870.00;5088974;28;20107;-74
2022/10/15 00:37:16;;;;;;;44.13;21.02;;;;;;;16.81;83.31;100869.03;5087139;28;20056;-74
2022/10/15 00:39:43;;;;;;;51.47;21.48;;;;;;;16.75;83.52;100873.84;5087754;28;20529;-74
2022/10/15 00:42:11;;;;;;;40.33;20.35;;;;;;;16.76;83.67;100861.66;5087465;28;20044;-74
2022/10/15 00:44:42;;;;;;;45.45;19.85;;;;;;;16.83;83.50;100867.59;5087475;28;20039;-74
2022/10/15 00:47:25;;;;;;;43.47;21.67;;;;;;;16.78;83.69;100857.44;5088906;28;20049;-73
2022/10/15 00:49:55;;;;;;;45.83;21.90;;;;;;;16.71;83.80;100862.63;5087925;28;20139;-73
2022/10/15 00:53:05;;;;;;;40.78;21.20;;;;;;;16.80;84.18;100857.16;5089023;28;20052;-74
2022/10/15 00:55:41;;;;;;;48.40;21.83;;;;;;;16.79;83.89;100855.50;5085905;28;20379;-74
2022/10/15 00:58:15;;;;;;;43.47;21.52;;;;;;;16.81;83.20;100856.00;5069577;28;20032;-74
2022/10/15 01:00:44;;;;;;;44.28;20.70;;;;;;;16.74;83.63;100847.34;5087527;28;20058;-74
2022/10/15 01:03:13;;;;;;;45.42;20.08;;;;;;;16.76;83.48;100848.66;5073042;28;20052;-74
2022/10/15 01:05:43;;;;;;;45.85;21.02;;;;;;;16.59;84.54;100852.16;5088125;28;20048;-74
2022/10/15 01:08:10;;;;;;;46.35;22.25;;;;;;;16.62;84.09;100845.97;5087623;28;20040;-74
2022/10/15 01:11:06;;;;;;;45.75;20.90;;;;;;;16.61;84.09;100838.81;5087077;28;20051;-74
2022/10/15 01:13:45;;;;;;;45.67;21.13;;;;;;;16.61;84.12;100838.00;5087089;28;20043;-74
2022/10/15 01:16:20;;;;;;;45.53;22.05;;;;;;;16.58;83.97;100839.47;5088477;28;20491;-74
2022/10/15 01:18:58;;;;;;;49.83;23.63;;;;;;;16.71;83.90;100842.47;5088712;28;20055;-74
2022/10/15 01:21:40;;;;;;;46.00;21.23;;;;;;;16.69;83.30;100839.19;5073340;28;20055;-74
2022/10/15 01:24:14;;;;;;;49.10;23.52;;;;;;;16.72;83.43;100844.09;5074591;28;20459;-74
2022/10/15 01:27:04;;;;;;;53.95;22.73;;;;;;;16.63;84.01;100841.28;5074552;28;20055;-74
2022/10/15 01:30:02;;;;;;;50.72;22.08;;;;;;;16.65;84.40;100842.59;5074461;28;20514;-74
2022/10/15 01:33:03;;;;;;;50.00;22.98;;;;;;;16.63;84.35;100825.50;5073319;28;20056;-74
2022/10/15 01:35:43;;;;;;;49.42;22.38;;;;;;;16.66;83.97;100835.09;5058868;28;20048;-74
2022/10/15 01:38:32;;;;;;;51.45;23.80;;;;;;;16.68;83.63;100827.34;5072696;28;20517;-74
2022/10/15 01:41:11;;;;;;;57.60;23.83;;;;;;;16.66;83.87;100837.88;5105767;28;20410;-74
2022/10/15 01:43:47;;;;;;;51.33;21.95;;;;;;;16.70;83.96;100825.06;5072891;28;20056;-74
2022/10/15 01:46:47;;;;;;;50.03;23.10;;;;;;;16.69;83.55;100822.59;5073084;28;20052;-74
2022/10/15 01:49:25;;;;;;;50.65;21.45;;;;;;;16.64;83.71;100821.63;5072298;28;20044;-74
2022/10/15 01:51:54;;;;;;;48.40;23.27;;;;;;;16.61;83.49;100822.25;5075274;27;20056;-74
2022/10/15 01:54:26;;;;;;;50.78;22.15;;;;;;;16.58;83.92;100820.13;5072243;28;20044;-74
2022/10/15 01:56:57;;;;;;;43.85;21.00;;;;;;;16.59;84.69;100813.47;5073057;28;20052;-74
2022/10/15 01:59:30;;;;;;;53.05;22.70;;;;;;;16.68;83.97;100815.47;5072751;28;21882;-74
2022/10/15 02:01:58;;;;;;;52.50;24.70;;;;;;;16.61;83.67;100802.91;5072662;28;20059;-74
2022/10/15 02:04:29;;;;;;;48.40;20.88;;;;;;;16.61;84.36;100811.19;5071844;28;20056;-74
2022/10/15 02:07:00;;;;;;;46.38;22.17;;;;;;;16.64;84.06;100801.47;5073628;28;20376;-74
2022/10/15 02:09:54;;;;;;;52.13;23.33;;;;;;;16.64;84.03;100799.53;5073439;28;20063;-74
2022/10/15 02:12:37;;;;;;;46.65;21.40;;;;;;;16.62;84.50;100785.19;5072773;28;20048;-74
2022/10/15 02:15:34;;;;;;;44.00;22.53;;;;;;;16.56;84.35;100785.66;5072325;28;20048;-74
2022/10/15 02:18:17;;;;;;;47.75;21.65;;;;;;;16.55;84.91;100793.13;5074187;28;20044;-74
2022/10/15 02:21:13;;;;;;;43.65;22.05;;;;;;;16.73;83.52;100790.47;5073933;28;20059;-74
2022/10/15 02:24:09;;;;;;;43.38;21.00;;;;;;;16.69;83.76;100790.28;5043043;28;20044;-74
2022/10/15 02:26:39;;;;;;;52.95;22.85;;;;;;;16.87;82.76;100780.13;5073531;28;20052;-74
2022/10/15 02:29:12;;;;;;;48.65;21.30;;;;;;;16.79;83.83;100772.59;5071786;28;20422;-74
2022/10/15 02:31:43;;;;;;;47.53;21.48;;;;;;;16.82;83.17;100780.28;5103831;28;20060;-74
2022/10/15 02:34:16;;;;;;;49.10;21.23;;;;;;;16.81;83.00;100778.63;5073144;28;20509;-74
2022/10/15 02:36:45;;;;;;;45.10;21.70;;;;;;;16.85;83.18;100770.50;5104854;28;20053;-74
2022/10/15 02:39:19;;;;;;;49.38;20.88;;;;;;;16.83;83.28;100772.78;5072934;28;20052;-74
2022/10/15 02:41:48;;;;;;;48.63;21.35;;;;;;;16.68;83.67;100776.78;5071467;28;20406;-74
2022/10/15 02:44:16;;;;;;;47.42;20.45;;;;;;;16.63;83.83;100786.81;5071695;28;20037;-74
2022/10/15 02:46:44;;;;;;;47.65;21.83;;;;;;;16.69;83.70;100773.69;5072910;28;20045;-74
2022/10/15 02:49:15;;;;;;;50.58;20.88;;;;;;;16.60;84.36;100781.13;5055129;28;20057;-74
2022/10/15 02:51:43;;;;;;;54.10;23.90;;;;;;;16.61;84.90;100767.00;5071863;28;20047;-74
2022/10/15 02:54:15;;;;;;;47.17;20.88;;;;;;;16.72;84.28;100772.25;5071455;28;20055;-74
2022/10/15 02:56:46;;;;;;;50.67;22.98;;;;;;;16.78;83.89;100774.53;5071193;28;20048;-74
2022/10/15 02:59:18;;;;;;;45.72;21.40;;;;;;;16.69;84.15;100772.88;5070955;28;20067;-74
2022/10/15 03:01:46;;;;;;;47.00;21.75;;;;;;;16.65;84.27;100773.53;5071453;28;20041;-74
2022/10/15 03:04:15;;;;;;;48.78;23.27;;;;;;;16.69;84.24;100761.81;5070701;28;20044;-74
2022/10/15 03:06:43;;;;;;;46.30;21.83;;;;;;;16.55;84.91;100770.19;5070632;28;20046;-74
2022/10/15 03:09:13;;;;;;;48.83;21.83;;;;;;;16.58;84.91;100769.56;5070593;28;20048;-74
2022/10/15 03:11:40;;;;;;;44.08;20.90;;;;;;;16.55;85.24;100762.72;5071034;28;20040;-74
2022/10/15 03:14:08;;;;;;;49.08;23.25;;;;;;;16.58;85.41;100762.13;5070801;28;20384;-74
2022/10/15 03:16:36;;;;;;;47.50;21.80;;;;;;;16.60;85.24;100759.84;5049902;28;20495;-74
2022/10/15 03:19:04;;;;;;;45.97;21.67;;;;;;;16.53;85.18;100760.28;5045835;28;20052;-74
2022/10/15 03:21:32;;;;;;;49.05;21.92;;;;;;;16.54;85.29;100758.34;5047759;28;20048;-73
2022/10/15 03:24:09;;;;;;;48.70;21.40;;;;;;;16.63;84.70;100758.41;5059706;28;20517;-74
2022/10/15 03:26:37;;;;;;;47.03;21.20;;;;;;;16.51;85.43;100757.03;5059931;28;20048;-74
2022/10/15 03:29:05;;;;;;;45.17;21.88;;;;;;;16.61;85.12;100755.09;5051913;28;20053;-74
2022/10/15 03:31:38;;;;;;;45.33;20.13;;;;;;;16.60;85.74;100757.06;5050356;28;20041;-74
2022/10/15 03:34:08;;;;;;;46.45;21.40;;;;;;;16.63;85.27;100759.19;5050701;28;20060;-74
2022/10/15 03:36:36;;;;;;;47.30;21.92;;;;;;;16.58;85.33;100742.78;5061550;28;20053;-74
2022/10/15 03:39:08;;;;;;;51.35;21.63;;;;;;;16.55;85.27;100740.63;5070640;28;20037;-74
2022/10/15 03:41:37;;;;;;;50.25;20.75;;;;;;;16.51;85.42;100739.63;5070805;28;20411;-74
2022/10/15 03:44:07;;;;;;;46.95;21.75;;;;;;;16.53;85.75;100737.38;5071485;28;20053;-74
2022/10/15 03:46:37;;;;;;;46.50;21.83;;;;;;;16.55;85.69;100735.09;5070710;28;20406;-74
2022/10/15 03:49:05;;;;;;;46.13;21.33;;;;;;;16.52;85.84;100741.25;5072075;28;20059;-74
2022/10/15 03:51:33;;;;;;;51.95;23.10;;;;;;;16.42;85.82;100736.81;5087224;28;20052;-73
2022/10/15 03:54:06;;;;;;;46.97;21.53;;;;;;;16.33;86.68;100731.25;5070201;28;20475;-73
2022/10/15 03:56:41;;;;;;;50.90;22.90;;;;;;;16.36;86.60;100730.63;5053310;28;20041;-74
2022/10/15 03:59:22;;;;;;;50.75;22.83;;;;;;;16.31;86.75;100735.44;5054144;28;20044;-74
2022/10/15 04:01:57;;;;;;;50.10;22.20;;;;;;;16.29;86.92;100730.25;5050323;28;20049;-74
2022/10/15 04:04:25;;;;;;;44.55;22.73;;;;;;;16.21;87.41;100731.00;5050356;28;20100;-74
2022/10/15 04:06:53;;;;;;;50.22;22.85;;;;;;;16.23;87.11;100731.53;5050051;28;20057;-74
2022/10/15 04:09:20;;;;;;;48.25;21.42;;;;;;;16.18;87.48;100732.44;5049792;28;20064;-74
2022/10/15 04:11:48;;;;;;;50.28;22.05;;;;;;;16.12;87.76;100729.00;5049696;28;20052;-75
2022/10/15 04:14:19;;;;;;;57.75;21.75;;;;;;;16.06;87.74;100713.69;5049951;28;20369;-75
2022/10/15 04:16:46;;;;;;;46.95;22.10;;;;;;;16.02;87.99;100723.72;5051313;28;20119;-75
2022/10/15 04:19:19;;;;;;;41.72;20.77;;;;;;;15.95;88.79;100734.41;5050298;28;20048;-75
2022/10/15 04:21:57;;;;;;;49.03;21.80;;;;;;;15.96;88.40;100736.03;5050124;28;20049;-75
2022/10/15 04:24:31;;;;;;;59.10;24.03;;;;;;;15.93;88.55;100736.66;5049987;28;20049;-75
2022/10/15 04:26:58;;;;;;;47.88;21.85;;;;;;;15.93;88.67;100740.22;5051151;28;20789;-75
2022/10/15 04:29:26;;;;;;;48.40;21.13;;;;;;;15.98;88.25;100753.06;5051497;28;20060;-75
2022/10/15 04:32:14;;;;;;;52.47;23.70;;;;;;;15.93;88.38;100761.50;5049772;28;20443;-76
2022/10/15 04:34:45;;;;;;;51.47;23.25;;;;;;;15.92;88.35;100768.97;5049727;28;20484;-75
2022/10/15 04:37:14;;;;;;;52.22;23.05;;;;;;;15.95;88.67;100767.50;5066446;28;20052;-75
2022/10/15 04:39:42;;;;;;;50.58;22.65;;;;;;;15.84;88.69;100767.72;5053430;28;20048;-75
2022/10/15 04:42:13;;;;;;;45.28;20.58;;;;;;;15.81;88.89;100768.34;5069825;28;20049;-75
2022/10/15 04:44:43;;;;;;;52.05;21.83;;;;;;;15.70;89.37;100762.22;5070919;28;20052;-75
2022/10/15 04:47:11;;;;;;;48.00;23.05;;;;;;;15.69;89.75;100754.28;5069923;28;20047;-75
2022/10/15 04:49:43;;;;;;;47.15;21.85;;;;;;;15.68;90.16;100763.66;5069932;28;20049;-75
2022/10/15 04:52:27;;;;;;;48.08;23.20;;;;;;;15.75;90.37;100768.78;5069568;28;20419;-74
2022/10/15 04:54:57;;;;;;;51.33;22.95;;;;;;;15.75;89.83;100766.84;5070374;28;20080;-74
2022/10/15 04:57:25;;;;;;;54.35;22.10;;;;;;;15.74;90.01;100762.41;5062030;28;20041;-74
2022/10/15 04:59:54;;;;;;;52.97;23.05;;;;;;;15.89;89.17;100763.22;5068591;28;20041;-74
2022/10/15 05:02:33;;;;;;;46.17;22.55;;;;;;;15.84;89.46;100758.63;5074667;28;20045;-73
2022/10/15 05:05:20;;;;;;;48.90;20.23;;;;;;;15.79;89.65;100756.78;5062960;28;20045;-74
2022/10/15 05:08:01;;;;;;;48.78;21.73;;;;;;;15.77;89.74;100760.97;5073173;28;20049;-73
2022/10/15 05:10:32;;;;;;;51.30;22.58;;;;;;;15.75;89.83;100758.56;5071433;28;20040;-74
2022/10/15 05:13:03;;;;;;;50.17;23.38;;;;;;;15.81;89.89;100762.00;5074644;28;20041;-74
2022/10/15 05:15:34;;;;;;;54.08;23.50;;;;;;;15.86;89.46;100750.84;5063485;28;20040;-74
2022/10/15 05:18:05;;;;;;;49.80;22.70;;;;;;;15.85;89.82;100744.50;5073293;28;20049;-74
2022/10/15 05:20:43;;;;;;;49.92;23.67;;;;;;;15.84;89.49;100748.41;5073486;28;20044;-74
2022/10/15 05:23:15;;;;;;;54.78;23.15;;;;;;;15.81;89.33;100751.78;5072377;28;20048;-74
2022/10/15 05:25:50;;;;;;;50.65;22.05;;;;;;;15.85;89.50;100750.03;5049649;28;20400;-74
2022/10/15 05:28:23;;;;;;;48.67;21.98;;;;;;;15.84;89.79;100759.44;5069598;28;20044;-74
2022/10/15 05:30:52;;;;;;;53.50;23.33;;;;;;;15.87;89.73;100766.28;5066675;28;20037;-74
2022/10/15 05:33:20;;;;;;;50.92;22.58;;;;;;;15.88;89.93;100756.88;5024205;28;20053;-74
2022/10/15 05:35:49;;;;;;;43.05;20.77;;;;;;;15.89;89.35;100752.19;5047337;28;20063;-74
2022/10/15 05:38:20;;;;;;;49.38;22.00;;;;;;;15.83;89.88;100766.09;5062559;28;20051;-74
2022/10/15 05:40:48;;;;;;;48.05;21.77;;;;;;;15.89;89.46;100763.22;5092272;28;20492;-73
2022/10/15 05:43:20;;;;;;;50.78;23.23;;;;;;;15.87;89.77;100760.75;5051060;28;20052;-73
2022/10/15 05:45:49;;;;;;;46.22;22.50;;;;;;;15.87;89.68;100769.03;5051403;28;20040;-74
2022/10/15 05:48:17;;;;;;;52.65;23.55;;;;;;;15.83;89.86;100777.13;5050815;28;20053;-74
2022/10/15 05:50:45;;;;;;;55.75;22.73;;;;;;;15.81;90.42;100775.81;5052618;28;20045;-74
2022/10/15 05:53:21;;;;;;;54.53;24.02;;;;;;;15.91;90.29;100788.53;5033825;28;20052;-74
2022/10/15 05:55:53;;;;;;;55.13;21.63;;;;;;;15.97;89.58;100790.09;5052815;28;20041;-74
2022/10/15 05:58:20;;;;;;;46.88;23.73;;;;;;;16.00;89.32;100806.03;5052682;28;20041;-74
2022/10/15 06:00:59;;;;;;;51.05;22.17;;;;;;;16.11;88.37;100798.31;5051839;28;20049;-74
2022/10/15 06:03:28;;;;;;;49.08;21.77;;;;;;;16.18;88.33;100806.19;5052155;28;20045;-74
2022/10/15 06:05:56;;;;;;;51.33;23.80;;;;;;;16.20;88.87;100803.91;5048994;28;20089;-74
2022/10/15 06:08:26;;;;;;;59.67;23.30;;;;;;;16.22;88.51;100804.41;5051511;28;20049;-73
2022/10/15 06:10:55;;;;;;;51.15;23.67;;;;;;;16.42;87.93;100808.63;5051841;28;20049;-74
2022/10/15 06:13:23;;;;;;;53.88;24.10;;;;;;;16.50;87.60;100801.53;5050888;28;20032;-74
2022/10/15 06:15:50;;;;;;;52.55;23.48;;;;;;;16.55;86.99;100804.16;5051982;28;20053;-73
2022/10/15 06:18:18;;;;;;;49.90;23.50;;;;;;;16.48;87.08;100812.09;5051829;28;20041;-73
2022/10/15 06:20:51;;;;;;;46.42;22.58;;;;;;;16.49;87.21;100799.91;5050424;28;20029;-75
2022/10/15 06:23:20;;;;;;;52.20;22.10;;;;;;;16.67;87.10;100806.34;5048660;28;20045;-77
2022/10/15 06:25:48;;;;;;;51.55;23.15;;;;;;;16.82;87.35;100801.56;5051543;28;20041;-77
2022/10/15 06:28:16;;;;;;;51.25;22.17;;;;;;;16.89;86.36;100802.75;5043239;28;20392;-76
2022/10/15 06:30:45;;;;;;;62.58;25.98;;;;;;;16.98;85.40;100801.97;5034358;28;20068;-76
2022/10/15 06:33:21;;;;;;;57.30;24.60;;;;;;;17.03;84.97;100804.63;5033700;28;20045;-76
2022/10/15 06:36:12;;;;;;;57.20;25.52;;;;;;;17.09;84.75;100799.75;5036485;28;20051;-76
2022/10/15 06:38:42;;;;;;;64.32;23.95;;;;;;;17.09;85.28;100806.09;5034742;28;20054;-77
2022/10/15 06:41:11;;;;;;;61.80;26.13;;;;;;;17.18;83.76;100804.19;5033776;28;20062;-77
2022/10/15 06:43:38;;;;;;;60.03;26.05;;;;;;;17.13;84.03;100804.34;5033206;28;20048;-77
2022/10/15 06:46:06;;;;;;;62.20;26.13;;;;;;;17.11;84.21;100805.78;5033144;28;20504;-77
2022/10/15 06:48:34;;;;;;;58.90;26.20;;;;;;;17.39;82.86;100813.84;5035052;28;20049;-77
2022/10/15 06:51:03;;;;;;;60.83;27.83;;;;;;;17.70;81.70;100816.53;5035558;28;20049;-77
2022/10/15 06:53:32;;;;;;;59.00;26.33;;;;;;;17.92;81.61;100814.78;5043475;28;20416;-78
2022/10/15 06:56:02;;;;;;;63.65;26.92;;;;;;;18.13;80.69;100812.22;5037987;28;20050;-77
2022/10/15 06:58:35;;;;;;;57.50;24.23;;;;;;;18.11;80.17;100808.13;5038657;28;20052;-78
2022/10/15 07:01:05;;;;;;;49.80;22.27;;;;;;;18.33;78.91;100811.88;5050440;28;20092;-77
2022/10/15 07:03:33;;;;;;;51.50;24.77;;;;;;;18.52;78.13;100812.34;5044778;28;20052;-77
2022/10/15 07:06:03;;;;;;;51.40;23.75;;;;;;;18.79;78.52;100815.88;5058051;28;20049;-77
2022/10/15 07:08:33;;;;;;;51.33;23.38;;;;;;;19.04;75.55;100812.53;5038011;28;20049;-77
2022/10/15 07:11:05;;;;;;;56.28;23.70;;;;;;;19.03;76.14;100814.53;5033130;28;20053;-78
2022/10/15 07:13:33;;;;;;;50.22;24.35;;;;;;;19.22;74.93;100812.47;5034275;28;20044;-78
2022/10/15 07:16:07;;;;;;;49.72;23.00;;;;;;;19.59;73.01;100813.59;5048081;28;20045;-77
2022/10/15 07:18:36;;;;;;;46.85;22.92;;;;;;;19.86;71.93;100814.22;5050994;28;20048;-77
2022/10/15 07:21:06;;;;;;;43.03;22.63;;;;;;;19.98;71.88;100816.28;5050715;28;20491;-77
2022/10/15 07:23:34;;;;;;;52.95;25.40;;;;;;;19.97;71.89;100830.50;5050856;28;20037;-77
2022/10/15 07:26:03;;;;;;;48.60;23.25;;;;;;;19.95;71.06;100830.81;5050479;28;20052;-77
2022/10/15 07:28:31;;;;;;;43.90;20.92;;;;;;;20.08;71.21;100836.50;5050978;28;20045;-77
2022/10/15 07:31:04;;;;;;;51.30;23.17;;;;;;;20.11;71.44;100836.63;5051282;28;20040;-77
2022/10/15 07:33:34;;;;;;;48.90;22.67;;;;;;;20.04;70.88;100832.75;5050711;28;20049;-79
2022/10/15 07:36:08;;;;;;;53.80;22.08;;;;;;;19.81;72.42;100831.09;5051537;28;20051;-78
2022/10/15 07:38:36;;;;;;;46.00;21.02;;;;;;;19.51;72.26;100839.44;5053237;28;20049;-77
2022/10/15 07:41:06;;;;;;;48.30;21.77;;;;;;;19.58;74.07;100839.72;5051294;28;20712;-78
2022/10/15 07:43:42;;;;;;;46.67;21.30;;;;;;;20.04;72.86;100847.44;5051430;28;20492;-78
2022/10/15 07:46:11;;;;;;;46.97;20.15;;;;;;;20.27;70.73;100850.69;5050597;28;20056;-77
2022/10/15 07:48:39;;;;;;;47.00;21.02;;;;;;;20.41;70.54;100847.66;5046998;28;20040;-77
2022/10/15 07:51:09;;;;;;;45.13;21.42;;;;;;;20.71;68.67;100851.47;5050291;28;20060;-78
2022/10/15 07:53:37;;;;;;;42.80;21.30;;;;;;;20.80;68.49;100852.16;5051632;28;20049;-77
2022/10/15 07:56:07;;;;;;;45.95;22.73;;;;;;;20.85;69.48;100856.72;5051572;28;20052;-77
2022/10/15 07:58:36;;;;;;;44.90;20.85;;;;;;;20.83;68.72;100868.19;5051631;28;20052;-77
2022/10/15 08:01:07;;;;;;;53.72;23.95;;;;;;;20.85;70.76;100860.31;5051822;28;20499;-77
2022/10/15 08:03:36;;;;;;;56.72;25.33;;;;;;;21.11;70.28;100870.34;5040533;28;20438;-77
2022/10/15 08:06:06;;;;;;;48.90;23.90;;;;;;;21.15;70.39;100862.09;5052453;28;20056;-77
2022/10/15 08:08:35;;;;;;;47.53;24.80;;;;;;;21.07;68.90;100872.19;5051527;28;20049;-78
2022/10/15 08:11:09;;;;;;;47.88;22.25;;;;;;;21.26;66.07;100873.63;5051609;28;20060;-78
2022/10/15 08:13:40;;;;;;;48.13;22.10;;;;;;;21.37;65.78;100876.75;5051306;28;20051;-78
2022/10/15 08:16:10;;;;;;;53.40;25.50;;;;;;;21.34;66.31;100875.47;5051007;28;20068;-78
2022/10/15 08:18:38;;;;;;;53.50;23.88;;;;;;;21.17;67.15;100877.28;5051339;28;20036;-78
2022/10/15 08:21:07;;;;;;;46.80;22.20;;;;;;;21.26;66.13;100882.75;5051369;28;20049;-78
2022/10/15 08:23:35;;;;;;;50.63;22.00;;;;;;;21.51;66.46;100885.56;5049377;28;20075;-78
2022/10/15 08:26:04;;;;;;;43.42;21.17;;;;;;;21.54;64.99;100884.06;5051502;28;20487;-78
2022/10/15 08:28:33;;;;;;;46.03;20.95;;;;;;;21.52;64.38;100890.00;5050538;28;20057;-77
2022/10/15 08:31:02;;;;;;;45.08;22.05;;;;;;;21.64;65.03;100889.16;5053740;28;20048;-78
2022/10/15 08:33:34;;;;;;;55.25;23.35;;;;;;;21.70;65.27;100887.78;5055115;28;20048;-78
2022/10/15 08:36:06;;;;;;;48.97;23.17;;;;;;;21.53;64.76;100888.00;5061611;28;20040;-78
2022/10/15 08:38:34;;;;;;;44.65;22.70;;;;;;;21.37;64.79;100891.50;5075687;28;20063;-77
2022/10/15 08:41:13;;;;;;;44.22;22.70;;;;;;;21.61;62.99;100895.44;5075097;28;20045;-78
2022/10/15 08:43:42;;;;;;;48.30;21.73;;;;;;;21.80;61.57;100896.84;5075117;28;20044;-77
2022/10/15 08:46:27;;;;;;;44.95;21.67;;;;;;;21.50;60.41;100895.06;5061289;28;20045;-77
2022/10/15 08:48:58;;;;;;;41.50;20.40;;;;;;;21.43;62.16;100892.06;5075484;28;20052;-78
2022/10/15 08:51:39;;;;;;;45.10;21.45;;;;;;;21.75;62.39;100898.72;5075266;28;20037;-78
2022/10/15 08:54:15;;;;;;;46.65;21.23;;;;;;;21.64;62.27;100900.31;5074876;28;20048;-77
2022/10/15 08:56:46;;;;;;;48.05;22.38;;;;;;;21.62;61.83;100897.06;5075112;28;20047;-78
2022/10/15 08:59:14;;;;;;;43.65;21.90;;;;;;;21.42;62.87;100894.06;5073648;28;20041;-78
2022/10/15 09:02:14;;;;;;;44.90;20.65;;;;;;;21.76;63.19;100888.38;5074936;28;20475;-77
2022/10/15 09:05:00;;;;;;;37.38;20.05;;;;;;;22.01;62.27;100891.94;5074323;28;20045;-77
2022/10/15 09:07:57;;;;;;;38.75;19.95;;;;;;;22.21;61.53;100900.50;5075091;28;20052;-78
2022/10/15 09:10:31;;;;;;;49.58;20.73;;;;;;;22.09;60.37;100908.91;5074663;28;20048;-78
2022/10/15 09:13:04;;;;;;;37.75;19.85;;;;;;;22.21;60.57;100903.28;5074574;28;20040;-78
2022/10/15 09:15:39;;;;;;;52.25;22.90;;;;;;;22.04;60.54;100901.56;5074140;28;20064;-78
2022/10/15 09:18:16;;;;;;;47.97;21.50;;;;;;;21.83;60.35;100907.28;5074191;28;20609;-77
2022/10/15 09:20:44;;;;;;;52.13;22.58;;;;;;;21.83;60.94;100890.56;5074558;28;20045;-78
2022/10/15 09:23:19;;;;;;;36.70;19.88;;;;;;;22.05;60.10;100902.38;5065787;28;20526;-77
2022/10/15 09:26:10;;;;;;;45.47;21.77;;;;;;;22.20;59.89;100898.88;5070724;28;20044;-77
2022/10/15 09:28:52;;;;;;;43.58;20.65;;;;;;;22.35;59.65;100897.34;5048924;28;20049;-78
2022/10/15 09:31:26;;;;;;;42.80;21.65;;;;;;;22.41;58.72;100895.91;5053603;28;20399;-77
2022/10/15 09:34:13;;;;;;;44.22;19.58;;;;;;;22.47;58.50;100898.44;5060685;28;20060;-78
2022/10/15 09:36:46;;;;;;;44.78;20.88;;;;;;;22.44;58.07;100894.41;5056548;28;20056;-77
2022/10/15 09:39:18;;;;;;;63.88;21.88;;;;;;;22.63;59.07;100904.13;5049885;28;20483;-77
2022/10/15 09:42:00;;;;;;;42.63;19.40;;;;;;;22.67;57.51;100902.22;5044538;28;20045;-77
2022/10/15 09:44:35;;;;;;;44.45;21.45;;;;;;;22.59;57.86;100901.22;5051495;28;20391;-77
2022/10/15 09:47:39;;;;;;;43.83;21.55;;;;;;;22.65;57.25;100899.81;5049355;28;20049;-78
2022/10/15 09:50:11;;;;;;;41.00;20.60;;;;;;;22.61;57.94;100895.28;5056394;28;20057;-78
2022/10/15 09:53:16;;;;;;;44.60;20.15;;;;;;;22.96;57.54;100900.22;5055342;28;20056;-78
2022/10/15 09:55:53;;;;;;;44.90;22.58;;;;;;;23.21;56.64;100888.91;5057550;28;20055;-78
2022/10/15 09:58:29;;;;;;;39.72;21.10;;;;;;;23.92;54.20;100890.22;5058839;28;20403;-78
2022/10/15 10:01:01;;;;;;;51.95;23.63;;;;;;;24.40;52.12;100896.47;5046646;28;20056;-78
2022/10/15 10:03:35;;;;;;;45.83;23.20;;;;;;;24.74;51.38;100892.34;5048898;28;20052;-78
2022/10/15 10:06:10;;;;;;;47.40;22.08;;;;;;;24.12;51.91;100897.50;5053173;28;20053;-77
2022/10/15 10:08:58;;;;;;;52.88;25.13;;;;;;;23.32;53.36;100892.81;5053720;28;20143;-78
2022/10/15 10:11:44;;;;;;;48.38;24.05;;;;;;;23.25;53.79;100895.38;5052416;28;20122;-77
2022/10/15 10:14:23;;;;;;;48.40;22.23;;;;;;;22.95;55.07;100893.84;5064565;28;20048;-77
2022/10/15 10:17:17;;;;;;;44.38;22.20;;;;;;;23.08;54.71;100902.13;5052146;28;20053;-79
2022/10/15 10:20:01;;;;;;;51.95;23.60;;;;;;;23.18;55.30;100900.78;5053361;28;20045;-78
2022/10/15 10:22:29;;;;;;;;;;;;;;;23.51;53.70;100902.44;5043096;28;20395;-78
2022/10/15 10:24:56;;;;;;;45.53;22.02;;;;;;;23.58;54.09;100902.63;5086688;28;19932;-78
2022/10/15 10:27:29;;;;;;;46.40;22.33;;;;;;;23.60;55.01;100894.69;5042520;28;20044;-79
2022/10/15 10:30:01;;;;;;;49.95;22.90;;;;;;;23.82;53.11;100898.00;5041460;28;20492;-79
2022/10/15 10:32:32;;;;;;;50.50;22.48;;;;;;;23.84;52.64;100903.19;5041487;28;20605;-77
2022/10/15 10:35:03;;;;;;;49.15;23.83;;;;;;;23.52;52.91;100898.50;5052440;28;20049;-78
2022/10/15 10:37:41;;;;;;;48.00;21.83;;;;;;;23.59;54.29;100903.41;5059958;28;20040;-77
2022/10/15 10:40:34;;;;;;;46.05;22.88;;;;;;;23.67;53.71;100910.00;5065811;28;20044;-76
2022/10/15 10:43:15;;;;;;;52.13;24.33;;;;;;;23.61;52.86;100906.69;5050782;28;20423;-77
2022/10/15 10:46:04;;;;;;;43.13;22.45;;;;;;;23.78;51.93;100905.47;5050762;28;20048;-76
2022/10/15 10:48:46;;;;;;;50.40;24.02;;;;;;;23.78;53.33;100907.44;5051283;28;20076;-77
2022/10/15 10:51:27;;;;;;;50.67;23.10;;;;;;;23.84;53.17;100895.63;5051476;28;20041;-77
2022/10/15 10:53:57;;;;;;;52.75;24.50;;;;;;;23.92;52.87;100893.00;5049985;28;20053;-77
2022/10/15 10:56:43;;;;;;;51.70;24.15;;;;;;;24.15;52.22;100888.38;5051352;28;20056;-77
2022/10/15 10:59:36;;;;;;;45.17;23.75;;;;;;;24.73;51.17;100890.72;5051460;28;20771;-76
2022/10/15 11:02:11;;;;;;;49.17;22.83;;;;;;;24.91;48.88;100900.28;5048963;28;20052;-75
2022/10/15 11:04:39;;;;;;;43.97;23.83;;;;;;;24.88;48.68;100895.44;5051153;28;20048;-77
2022/10/15 11:07:16;;;;;;;46.42;23.77;;;;;;;24.94;49.14;100893.94;5050943;28;20044;-76
2022/10/15 11:09:54;;;;;;;51.33;23.55;;;;;;;24.80;48.98;100888.06;5049875;28;20041;-76
2022/10/15 11:12:29;;;;;;;47.80;22.55;;;;;;;24.75;50.13;100880.78;5048405;28;20040;-76
2022/10/15 11:15:03;;;;;;;;;;;;;;;25.07;48.21;100883.38;5050978;28;20057;-76
2022/10/15 11:17:53;;;;;;;42.08;20.70;;;;;;;25.15;48.30;100884.31;5052032;28;19928;-78
2022/10/15 11:20:30;;;;;;;46.60;23.05;;;;;;;25.04;47.19;100883.31;5045881;28;20052;-77
2022/10/15 11:23:23;;;;;;;47.42;22.75;;;;;;;25.21;47.73;100882.00;5051875;28;20140;-77
2022/10/15 11:26:21;;;;;;;44.00;21.30;;;;;;;25.32;47.88;100879.41;5057670;28;20134;-78
2022/10/15 11:29:22;;;;;;;48.20;22.33;;;;;;;25.11;48.15;100883.44;5072300;28;20045;-76
2022/10/15 11:32:01;;;;;;;48.20;23.55;;;;;;;24.80;48.92;100876.88;5062525;28;20044;-77
2022/10/15 11:35:03;;;;;;;45.58;23.10;;;;;;;24.88;49.59;100887.03;5062766;28;20037;-78
2022/10/15 11:38:12;;;;;;;42.33;22.30;;;;;;;24.56;49.44;100876.00;5057004;28;20048;-76
2022/10/15 11:40:58;;;;;;;44.20;22.50;;;;;;;24.24;50.08;100867.78;5048623;28;20056;-77
2022/10/15 11:43:47;;;;;;;43.45;22.10;;;;;;;24.65;50.52;100868.22;5046953;28;20096;-76